createdAt,value
2019-05-29T00:02:01.809Z,1.50
2019-05-29T00:07:07.829Z,1.10
2019-05-29T00:12:19.210Z,1.20
2019-05-29T00:17:19.809Z,1.00
2019-05-29T00:22:24.807Z,1.00
2019-05-29T00:27:29.902Z,1.25
2019-05-29T00:32:35.007Z,1.67
2019-05-29T00:37:40.002Z,1.40
2019-05-29T00:42:45.009Z,1.50
2019-05-29T00:47:50.191Z,1.27
2019-05-29T00:52:55.410Z,2.07
2019-05-29T00:58:00.489Z,2.07
2019-05-29T01:03:05.762Z,2.23
2019-05-29T01:08:12.468Z,1.53
2019-05-29T01:13:19.142Z,1.70
2019-05-29T01:18:24.289Z,2.33
2019-05-29T01:23:29.369Z,1.87
2019-05-29T01:28:34.422Z,2.27
2019-05-29T01:33:39.539Z,2.20
2019-05-29T01:38:44.623Z,1.50
2019-05-29T01:43:49.805Z,1.50
2019-05-29T01:48:54.870Z,2.00
2019-05-29T01:54:00.154Z,1.80
2019-05-29T01:59:05.471Z,2.10
2019-05-29T02:04:10.762Z,2.00
2019-05-29T02:09:16.530Z,1.37
2019-05-29T02:14:22.741Z,1.33
2019-05-29T02:19:28.267Z,1.47
2019-05-29T02:24:33.502Z,0.88
2019-05-29T02:29:38.930Z,1.17
2019-05-29T02:34:44.103Z,1.00
2019-05-29T02:39:49.663Z,1.20
2019-05-29T02:44:55.203Z,1.90
2019-05-29T02:50:00.212Z,2.03
2019-05-29T02:55:05.711Z,2.27
2019-05-29T03:00:11.551Z,2.47
2019-05-29T03:05:16.537Z,2.10
2019-05-29T03:10:22.558Z,2.53
2019-05-29T03:15:27.494Z,2.70
2019-05-29T03:20:32.531Z,1.50
2019-05-29T03:25:37.343Z,2.97
2019-05-29T03:30:46.085Z,4.20
2019-05-29T03:35:49.157Z,2.77
2019-05-29T03:40:53.964Z,3.20
2019-05-29T03:45:58.969Z,3.20
2019-05-29T03:51:03.886Z,3.83
2019-05-29T03:56:08.871Z,3.90
2019-05-29T04:01:13.609Z,7.60
2019-05-29T04:06:18.465Z,4.63
2019-05-29T04:11:23.311Z,2.90
2019-05-29T04:16:29.569Z,1.60
2019-05-29T04:21:38.673Z,1.40
2019-05-29T04:26:44.872Z,2.23
2019-05-29T04:31:50.030Z,2.10
2019-05-29T04:36:54.817Z,2.67
2019-05-29T04:41:59.691Z,2.90
2019-05-29T04:47:11.047Z,2.73
2019-05-29T04:52:11.382Z,2.20
2019-05-29T04:57:16.512Z,3.90
2019-05-29T05:02:21.392Z,7.23
2019-05-29T05:07:26.222Z,10.58
2019-05-29T05:12:31.548Z,9.23
2019-05-29T05:17:36.517Z,9.23
2019-05-29T05:22:41.410Z,17.50
2019-05-29T05:27:46.301Z,11.53
2019-05-29T05:32:51.171Z,4.13
2019-05-29T05:37:55.910Z,7.57
2019-05-29T05:43:00.826Z,9.33
2019-05-29T05:48:05.770Z,14.77
2019-05-29T05:53:10.589Z,13.27
2019-05-29T05:58:15.410Z,20.43
2019-05-29T06:03:20.870Z,8.87
2019-05-29T06:08:25.669Z,20.92
2019-05-29T06:13:30.512Z,22.98
2019-05-29T06:18:36.448Z,22.70
2019-05-29T06:23:41.686Z,23.57
2019-05-29T06:28:46.875Z,25.47
2019-05-29T06:33:51.850Z,18.87
2019-05-29T06:38:57.089Z,16.97
2019-05-29T06:44:01.970Z,13.87
2019-05-29T06:49:06.870Z,25.03
2019-05-29T06:54:11.942Z,22.03
2019-05-29T06:59:16.801Z,21.00
2019-05-29T07:04:22.042Z,15.20
2019-05-29T07:09:26.951Z,20.33
2019-05-29T07:14:31.950Z,16.90
2019-05-29T07:19:48.946Z,12.33
2019-05-29T07:24:44.997Z,17.73
2019-05-29T07:29:50.371Z,22.13
2019-05-29T07:35:03.118Z,18.03
2019-05-29T07:40:01.949Z,18.57
2019-05-29T07:45:07.350Z,18.67
2019-05-29T07:50:13.055Z,13.27
2019-05-29T07:55:18.229Z,16.23
2019-05-29T08:00:34.735Z,21.73
2019-05-29T08:05:30.310Z,22.60
2019-05-29T08:10:35.153Z,24.98
2019-05-29T08:15:55.019Z,24.82
2019-05-29T08:20:46.409Z,26.40
2019-05-29T08:25:51.863Z,24.40
2019-05-29T08:30:56.872Z,15.70
2019-05-29T08:36:01.671Z,14.10
2019-05-29T08:41:06.441Z,22.17
2019-05-29T08:46:11.190Z,16.53
2019-05-29T08:51:16.210Z,21.37
2019-05-29T08:56:21.289Z,25.77
2019-05-29T09:01:26.171Z,15.83
2019-05-29T09:06:31.191Z,15.72
2019-05-29T09:11:36.341Z,14.50
2019-05-29T09:16:41.231Z,18.47
2019-05-29T09:21:46.213Z,15.07
2019-05-29T09:26:51.313Z,13.77
2019-05-29T09:31:56.423Z,21.07
2019-05-29T09:37:01.376Z,11.67
2019-05-29T09:42:06.350Z,11.77
2019-05-29T09:47:11.191Z,14.13
2019-05-29T09:52:16.010Z,15.50
2019-05-29T09:57:20.970Z,17.60
2019-05-29T10:02:26.192Z,16.33
2019-05-29T10:07:31.465Z,17.90
2019-05-29T10:12:36.990Z,21.80
2019-05-29T10:17:42.131Z,16.17
2019-05-29T10:22:47.030Z,17.40
2019-05-29T10:27:52.056Z,16.10
2019-05-29T10:32:57.087Z,15.70
2019-05-29T10:38:01.911Z,15.33
2019-05-29T10:43:06.970Z,16.17
2019-05-29T10:48:11.810Z,11.37
2019-05-29T10:53:16.769Z,20.13
2019-05-29T10:58:21.616Z,16.70
2019-05-29T11:03:26.509Z,10.37
2019-05-29T11:08:31.469Z,17.53
2019-05-29T11:13:36.733Z,18.93
2019-05-29T11:18:41.685Z,11.33
2019-05-29T11:23:47.705Z,13.67
2019-05-29T11:28:52.902Z,18.70
2019-05-29T11:33:59.237Z,19.07
2019-05-29T11:39:08.004Z,21.40
2019-05-29T11:44:13.303Z,23.90
2019-05-29T11:49:18.315Z,13.23
2019-05-29T11:54:23.051Z,12.90
2019-05-29T11:59:27.956Z,15.53
2019-05-29T12:04:32.992Z,13.10
2019-05-29T12:09:37.964Z,11.85
2019-05-29T12:14:59.055Z,24.30
2019-05-29T12:19:49.382Z,14.87
2019-05-29T12:24:54.632Z,15.07
2019-05-29T12:30:00.807Z,19.07
2019-05-29T12:35:07.290Z,29.93
2019-05-29T12:40:12.550Z,20.07
2019-05-29T12:45:18.391Z,19.27
2019-05-29T12:50:23.470Z,13.63
2019-05-29T12:55:28.512Z,25.65
2019-05-29T13:00:33.571Z,21.48
2019-05-29T13:05:38.710Z,16.93
2019-05-29T13:10:43.750Z,18.87
2019-05-29T13:15:48.915Z,19.73
2019-05-29T13:20:54.779Z,16.27
2019-05-29T13:25:59.970Z,18.83
2019-05-29T13:31:06.703Z,18.20
2019-05-29T13:36:11.782Z,18.67
2019-05-29T13:41:17.204Z,15.73
2019-05-29T13:46:22.084Z,13.93
2019-05-29T13:51:27.131Z,8.13
2019-05-29T13:56:32.245Z,9.90
2019-05-29T14:01:37.191Z,9.45
2019-05-29T14:06:42.481Z,14.00
2019-05-29T14:11:47.565Z,12.30
2019-05-29T14:16:53.542Z,12.07
2019-05-29T14:21:58.749Z,6.40
2019-05-29T14:27:03.701Z,9.23
2019-05-29T14:32:09.300Z,8.03
2019-05-29T14:37:14.864Z,10.23
2019-05-29T14:42:20.430Z,5.63
2019-05-29T14:47:25.891Z,5.83
2019-05-29T14:52:31.370Z,5.50
2019-05-29T14:57:36.478Z,5.03
2019-05-29T15:02:41.690Z,7.30
2019-05-29T15:07:46.733Z,4.77
2019-05-29T15:12:51.817Z,5.00
2019-05-29T15:17:57.022Z,3.83
2019-05-29T15:23:02.439Z,5.47
2019-05-29T15:28:08.143Z,4.97
2019-05-29T15:33:14.876Z,5.87
2019-05-29T15:38:20.432Z,3.53
2019-05-29T15:43:25.644Z,3.63
2019-05-29T15:48:30.805Z,3.37
2019-05-29T15:53:36.162Z,4.97
2019-05-29T15:58:41.362Z,9.40
2019-05-29T16:03:46.530Z,5.97
2019-05-29T16:08:51.909Z,5.30
2019-05-29T16:13:57.490Z,3.57
2019-05-29T16:19:02.392Z,3.83
2019-05-29T16:24:07.930Z,4.10
2019-05-29T16:29:15.963Z,2.33
2019-05-29T16:34:21.427Z,6.13
2019-05-29T16:39:26.785Z,9.73
2019-05-29T16:44:32.269Z,6.47
2019-05-29T16:49:37.430Z,4.00
2019-05-29T16:54:42.611Z,3.63
2019-05-29T16:59:47.969Z,5.37
2019-05-29T17:04:53.310Z,14.40
2019-05-29T17:09:58.689Z,11.73
2019-05-29T17:15:03.791Z,12.93
2019-05-29T17:20:09.586Z,10.23
2019-05-29T17:25:14.945Z,8.13
2019-05-29T17:30:23.649Z,4.60
2019-05-29T17:35:29.209Z,5.10
2019-05-29T17:40:34.633Z,4.13
2019-05-29T17:45:39.631Z,3.20
2019-05-29T17:50:44.809Z,3.80
2019-05-29T17:55:49.736Z,3.30
2019-05-29T18:00:55.272Z,3.50
2019-05-29T18:06:00.414Z,3.00
2019-05-29T18:11:05.598Z,3.63
2019-05-29T18:16:10.592Z,3.72
2019-05-29T18:21:15.630Z,3.73
2019-05-29T18:26:20.437Z,3.60
2019-05-29T18:31:26.524Z,3.80
2019-05-29T18:36:31.854Z,4.08
2019-05-29T18:41:36.949Z,5.05
2019-05-29T18:46:42.071Z,4.30
2019-05-29T18:51:47.131Z,4.80
2019-05-29T18:57:13.805Z,4.27
2019-05-29T19:01:59.123Z,4.50
2019-05-29T19:07:04.441Z,4.73
2019-05-29T19:12:10.230Z,4.37
2019-05-29T19:17:16.482Z,4.73
2019-05-29T19:22:22.263Z,5.20
2019-05-29T19:27:36.516Z,5.37
2019-05-29T19:32:34.695Z,4.70
2019-05-29T19:37:39.733Z,5.60
2019-05-29T19:42:44.870Z,4.60
2019-05-29T19:47:49.933Z,4.63
2019-05-29T19:52:54.994Z,4.63
2019-05-29T19:58:00.203Z,4.90
2019-05-29T20:03:05.510Z,12.80
2019-05-29T20:08:10.878Z,17.30
2019-05-29T20:13:16.149Z,16.47
2019-05-29T20:18:21.109Z,27.70
2019-05-29T20:23:26.191Z,23.35
2019-05-29T20:28:32.107Z,43.23
2019-05-29T20:33:38.661Z,30.93
2019-05-29T20:38:43.750Z,29.20
2019-05-29T20:43:48.742Z,28.40
2019-05-29T20:48:53.690Z,21.00
2019-05-29T20:53:58.823Z,28.93
2019-05-29T20:59:04.226Z,29.90
2019-05-29T21:04:09.403Z,24.70
2019-05-29T21:09:14.625Z,28.03
2019-05-29T21:14:19.942Z,33.20
2019-05-29T21:19:25.254Z,23.50
2019-05-29T21:24:30.243Z,35.40
2019-05-29T21:29:35.289Z,11.13
2019-05-29T21:34:40.330Z,6.43
2019-05-29T21:39:46.652Z,6.20
2019-05-29T21:44:51.760Z,6.30
2019-05-29T21:49:56.749Z,6.57
2019-05-29T21:55:01.831Z,6.53
2019-05-29T22:00:14.286Z,7.13
2019-05-29T22:05:20.150Z,6.60
2019-05-29T22:10:26.274Z,6.78
2019-05-29T22:15:31.669Z,6.60
2019-05-29T22:20:36.769Z,7.10
2019-05-29T22:25:42.081Z,9.97
2019-05-29T22:30:47.282Z,7.27
2019-05-29T22:35:54.019Z,6.20
2019-05-29T22:40:59.699Z,8.47
2019-05-29T22:46:05.182Z,19.73
2019-05-29T22:51:09.991Z,22.37
2019-05-29T22:56:14.942Z,17.60
2019-05-29T23:01:20.102Z,17.40
2019-05-29T23:06:25.150Z,19.77
2019-05-29T23:11:30.130Z,20.83
2019-05-29T23:16:35.128Z,15.35
2019-05-29T23:21:40.090Z,25.13
2019-05-29T23:26:45.322Z,21.00
2019-05-29T23:31:50.342Z,22.17
2019-05-29T23:36:55.413Z,19.30
2019-05-29T23:42:01.474Z,16.00
2019-05-29T23:47:06.630Z,22.40
2019-05-29T23:52:11.550Z,19.80
2019-05-29T23:57:16.510Z,19.00
